PWSweather.com
Personal Weather Stations
Station Observations
NAGEO265NE
Bedzin GrodziecPL 42-506

Bedzin GrodziecPL 42-506

Lat: 50.347, Lon: 19.079

Elevation: 948

Station Type: WH1080

http://www.meteo-grodziec.pl/

High Low Average
Temperature 48.7°F9.3°C 24.8°F-4.0°C 37.2°F2.9°C
Dew Point 33.6°F0.9°C 22.5°F-5.3°C 28.1°F-2.2°C
Winds 4.0 mph 6.4 kmh Calm Calm 1.0 mph SE1.6 kmh SE
Wind Gusts 10.0 mph16.1 kmh -- 2.0 mph3.2 kmh
Humidity 94% 45% 72%
Pressure 30.57 in1035.2 mb 30.41 in1029.8 mb -
Precipitation 0.00 in0.0 mm - -
Hour Temp Dew Point Humidity Winds Wind Gusts Pressure Precip Precip Rate Daily Precip Total
12:00 AM 29.5°F-1.4°C 25.7°F-3.5°C 86% Calm Calm -- 30.41 in1029.8 mb 0.00 in0.0 mm 0.00 in0.0 mm 0.00 in0.0 mm
12:05 AM 29.5°F-1.4°C 25.7°F-3.5°C 86% Calm Calm -- 30.41 in1029.8 mb 0.00 in0.0 mm 0.00 in0.0 mm 0.00 in0.0 mm
12:10 AM 29.5°F-1.4°C 25.7°F-3.5°C 86% Calm Calm -- 30.42 in1030.1 mb 0.00 in0.0 mm 0.00 in0.0 mm 0.00 in0.0 mm
12:15 AM 29.3°F-1.5°C 25.7°F-3.5°C 86% Calm Calm -- 30.42 in1030.1 mb 0.00 in0.0 mm 0.00 in0.0 mm 0.00 in0.0 mm
12:20 AM 29.5°F-1.4°C 25.7°F-3.5°C 86% Calm Calm -- 30.42 in1030.1 mb 0.00 in0.0 mm 0.00 in0.0 mm 0.00 in0.0 mm
12:25 AM 29.5°F-1.4°C 25.7°F-3.5°C 86% Calm Calm -- 30.42 in1030.1 mb 0.00 in0.0 mm 0.00 in0.0 mm 0.00 in0.0 mm
12:30 AM 29.1°F-1.6°C 25.5°F-3.6°C 86% Calm Calm -- 30.42 in1030.1 mb 0.00 in0.0 mm 0.00 in0.0 mm 0.00 in0.0 mm
12:35 AM 29.1°F-1.6°C 25.5°F-3.6°C 86% Calm Calm -- 30.42 in1030.1 mb 0.00 in0.0 mm 0.00 in0.0 mm 0.00 in0.0 mm
12:40 AM 29.1°F-1.6°C 25.7°F-3.5°C 87% Calm Calm -- 30.43 in1030.5 mb 0.00 in0.0 mm 0.00 in0.0 mm 0.00 in0.0 mm
12:45 AM 29.1°F-1.6°C 25.7°F-3.5°C 87% Calm Calm -- 30.43 in1030.5 mb 0.00 in0.0 mm 0.00 in0.0 mm 0.00 in0.0 mm
12:50 AM 29.1°F-1.6°C 25.7°F-3.5°C 87% Calm Calm -- 30.43 in1030.5 mb 0.00 in0.0 mm 0.00 in0.0 mm 0.00 in0.0 mm
12:55 AM 28.9°F-1.7°C 25.5°F-3.6°C 87% Calm Calm -- 30.43 in1030.5 mb 0.00 in0.0 mm 0.00 in0.0 mm 0.00 in0.0 mm
01:00 AM 28.0°F-2.2°C 24.4°F-4.2°C 86% Calm Calm 1.0 mph1.6 kmh 30.43 in1030.5 mb 0.00 in0.0 mm 0.00 in0.0 mm 0.00 in0.0 mm
01:05 AM 27.5°F-2.5°C 23.9°F-4.5°C 86% Calm Calm 1.0 mph1.6 kmh 30.43 in1030.5 mb 0.00 in0.0 mm 0.00 in0.0 mm 0.00 in0.0 mm
01:10 AM 27.7°F-2.4°C 24.4°F-4.2°C 88% Calm Calm -- 30.43 in1030.5 mb 0.00 in0.0 mm 0.00 in0.0 mm 0.00 in0.0 mm
01:15 AM 27.5°F-2.5°C 24.4°F-4.2°C 88% Calm Calm -- 30.43 in1030.5 mb 0.00 in0.0 mm 0.00 in0.0 mm 0.00 in0.0 mm
01:20 AM 27.3°F-2.6°C 24.3°F-4.3°C 88% Calm Calm -- 30.43 in1030.5 mb 0.00 in0.0 mm 0.00 in0.0 mm 0.00 in0.0 mm
01:25 AM 27.3°F-2.6°C 24.3°F-4.3°C 88% Calm Calm -- 30.43 in1030.5 mb 0.00 in0.0 mm 0.00 in0.0 mm 0.00 in0.0 mm
01:30 AM 27.1°F-2.7°C 24.4°F-4.2°C 89% Calm Calm -- 30.43 in1030.5 mb 0.00 in0.0 mm 0.00 in0.0 mm 0.00 in0.0 mm
01:35 AM 27.3°F-2.6°C 24.4°F-4.2°C 89% Calm Calm -- 30.44 in1030.8 mb 0.00 in0.0 mm 0.00 in0.0 mm 0.00 in0.0 mm
01:40 AM 27.7°F-2.4°C 24.8°F-4.0°C 89% Calm Calm -- 30.44 in1030.8 mb 0.00 in0.0 mm 0.00 in0.0 mm 0.00 in0.0 mm
01:45 AM 27.9°F-2.3°C 25.2°F-3.8°C 90% Calm Calm -- 30.44 in1030.8 mb 0.00 in0.0 mm 0.00 in0.0 mm 0.00 in0.0 mm
01:50 AM 27.9°F-2.3°C 25.0°F-3.9°C 89% Calm Calm -- 30.44 in1030.8 mb 0.00 in0.0 mm 0.00 in0.0 mm 0.00 in0.0 mm
01:55 AM 27.7°F-2.4°C 24.8°F-4.0°C 89% Calm Calm 1.0 mph1.6 kmh 30.43 in1030.5 mb 0.00 in0.0 mm 0.00 in0.0 mm 0.00 in0.0 mm
02:00 AM 27.7°F-2.4°C 24.8°F-4.0°C 89% Calm Calm 1.0 mph1.6 kmh 30.44 in1030.8 mb 0.00 in0.0 mm 0.00 in0.0 mm 0.00 in0.0 mm
02:05 AM 28.0°F-2.2°C 25.5°F-3.6°C 90% Calm Calm -- 30.44 in1030.8 mb 0.00 in0.0 mm 0.00 in0.0 mm 0.00 in0.0 mm
02:10 AM 28.0°F-2.2°C 25.5°F-3.6°C 90% Calm Calm -- 30.44 in1030.8 mb 0.00 in0.0 mm 0.00 in0.0 mm 0.00 in0.0 mm
02:15 AM 27.9°F-2.3°C 25.3°F-3.7°C 90% Calm Calm -- 30.44 in1030.8 mb 0.00 in0.0 mm 0.00 in0.0 mm 0.00 in0.0 mm
02:20 AM 27.9°F-2.3°C 25.2°F-3.8°C 90% Calm Calm -- 30.44 in1030.8 mb 0.00 in0.0 mm 0.00 in0.0 mm 0.00 in0.0 mm
02:25 AM 28.0°F-2.2°C 25.5°F-3.6°C 90% Calm Calm -- 30.44 in1030.8 mb 0.00 in0.0 mm 0.00 in0.0 mm 0.00 in0.0 mm
02:30 AM 28.0°F-2.2°C 25.5°F-3.6°C 90% Calm Calm -- 30.44 in1030.8 mb 0.00 in0.0 mm 0.00 in0.0 mm 0.00 in0.0 mm
02:35 AM 28.0°F-2.2°C 25.5°F-3.6°C 90% Calm Calm -- 30.43 in1030.5 mb 0.00 in0.0 mm 0.00 in0.0 mm 0.00 in0.0 mm
02:40 AM 27.9°F-2.3°C 25.0°F-3.9°C 89% Calm Calm -- 30.44 in1030.8 mb 0.00 in0.0 mm 0.00 in0.0 mm 0.00 in0.0 mm
02:45 AM 27.5°F-2.5°C 24.6°F-4.1°C 89% Calm Calm -- 30.43 in1030.5 mb 0.00 in0.0 mm 0.00 in0.0 mm 0.00 in0.0 mm
02:50 AM 27.5°F-2.5°C 25.0°F-3.9°C 90% Calm Calm -- 30.43 in1030.5 mb 0.00 in0.0 mm 0.00 in0.0 mm 0.00 in0.0 mm
02:55 AM 27.5°F-2.5°C 25.0°F-3.9°C 90% Calm Calm -- 30.44 in1030.8 mb 0.00 in0.0 mm 0.00 in0.0 mm 0.00 in0.0 mm
03:00 AM 27.5°F-2.5°C 25.0°F-3.9°C 90% Calm Calm -- 30.44 in1030.8 mb 0.00 in0.0 mm 0.00 in0.0 mm 0.00 in0.0 mm
03:05 AM 27.3°F-2.6°C 24.8°F-4.0°C 90% Calm Calm -- 30.44 in1030.8 mb 0.00 in0.0 mm 0.00 in0.0 mm 0.00 in0.0 mm
03:10 AM 27.5°F-2.5°C 25.0°F-3.9°C 90% Calm Calm -- 30.44 in1030.8 mb 0.00 in0.0 mm 0.00 in0.0 mm 0.00 in0.0 mm
03:15 AM 27.7°F-2.4°C 25.0°F-3.9°C 90% Calm Calm -- 30.44 in1030.8 mb 0.00 in0.0 mm 0.00 in0.0 mm 0.00 in0.0 mm
03:20 AM 27.9°F-2.3°C 25.3°F-3.7°C 90% Calm Calm -- 30.44 in1030.8 mb 0.00 in0.0 mm 0.00 in0.0 mm 0.00 in0.0 mm
03:25 AM 28.0°F-2.2°C 25.5°F-3.6°C 90% Calm Calm -- 30.44 in1030.8 mb 0.00 in0.0 mm 0.00 in0.0 mm 0.00 in0.0 mm
03:30 AM 28.0°F-2.2°C 25.5°F-3.6°C 90% Calm Calm -- 30.44 in1030.8 mb 0.00 in0.0 mm 0.00 in0.0 mm 0.00 in0.0 mm
03:35 AM 27.9°F-2.3°C 25.3°F-3.7°C 90% Calm Calm 1.0 mph1.6 kmh 30.44 in1030.8 mb 0.00 in0.0 mm 0.00 in0.0 mm 0.00 in0.0 mm
03:40 AM 27.5°F-2.5°C 25.0°F-3.9°C 90% Calm Calm 1.0 mph1.6 kmh 30.44 in1030.8 mb 0.00 in0.0 mm 0.00 in0.0 mm 0.00 in0.0 mm
03:45 AM 27.5°F-2.5°C 25.0°F-3.9°C 90% Calm Calm -- 30.45 in1031.2 mb 0.00 in0.0 mm 0.00 in0.0 mm 0.00 in0.0 mm
03:50 AM 27.7°F-2.4°C 25.0°F-3.9°C 90% Calm Calm -- 30.45 in1031.2 mb 0.00 in0.0 mm 0.00 in0.0 mm 0.00 in0.0 mm
03:55 AM 27.5°F-2.5°C 25.0°F-3.9°C 90% Calm Calm -- 30.45 in1031.2 mb 0.00 in0.0 mm 0.00 in0.0 mm 0.00 in0.0 mm
04:00 AM 27.1°F-2.7°C 24.6°F-4.1°C 90% Calm Calm -- 30.45 in1031.2 mb 0.00 in0.0 mm 0.00 in0.0 mm 0.00 in0.0 mm
04:05 AM 27.3°F-2.6°C 24.8°F-4.0°C 90% Calm Calm -- 30.45 in1031.2 mb 0.00 in0.0 mm 0.00 in0.0 mm 0.00 in0.0 mm
04:10 AM 27.3°F-2.6°C 24.8°F-4.0°C 90% Calm Calm -- 30.45 in1031.2 mb 0.00 in0.0 mm 0.00 in0.0 mm 0.00 in0.0 mm
04:15 AM 27.1°F-2.7°C 24.6°F-4.1°C 90% Calm Calm -- 30.46 in1031.5 mb 0.00 in0.0 mm 0.00 in0.0 mm 0.00 in0.0 mm
04:20 AM 27.0°F-2.8°C 24.4°F-4.2°C 90% Calm Calm -- 30.46 in1031.5 mb 0.00 in0.0 mm 0.00 in0.0 mm 0.00 in0.0 mm
04:25 AM 26.6°F-3.0°C 24.1°F-4.4°C 90% Calm Calm -- 30.46 in1031.5 mb 0.00 in0.0 mm 0.00 in0.0 mm 0.00 in0.0 mm
04:30 AM 26.2°F-3.2°C 23.7°F-4.6°C 90% Calm Calm -- 30.46 in1031.5 mb 0.00 in0.0 mm 0.00 in0.0 mm 0.00 in0.0 mm
04:35 AM 26.1°F-3.3°C 23.5°F-4.7°C 90% Calm Calm -- 30.46 in1031.5 mb 0.00 in0.0 mm 0.00 in0.0 mm 0.00 in0.0 mm
04:40 AM 26.1°F-3.3°C 23.5°F-4.7°C 90% Calm Calm -- 30.46 in1031.5 mb 0.00 in0.0 mm 0.00 in0.0 mm 0.00 in0.0 mm
04:45 AM 26.2°F-3.2°C 23.9°F-4.5°C 91% Calm Calm -- 30.46 in1031.5 mb 0.00 in0.0 mm 0.00 in0.0 mm 0.00 in0.0 mm
04:50 AM 26.2°F-3.2°C 23.9°F-4.5°C 91% Calm Calm -- 30.46 in1031.5 mb 0.00 in0.0 mm 0.00 in0.0 mm 0.00 in0.0 mm
04:55 AM 26.1°F-3.3°C 23.9°F-4.5°C 91% Calm Calm -- 30.46 in1031.5 mb 0.00 in0.0 mm 0.00 in0.0 mm 0.00 in0.0 mm
05:00 AM 26.2°F-3.2°C 23.9°F-4.5°C 91% Calm Calm 1.0 mph1.6 kmh 30.46 in1031.5 mb 0.00 in0.0 mm 0.00 in0.0 mm 0.00 in0.0 mm
05:05 AM 26.4°F-3.1°C 24.3°F-4.3°C 91% Calm Calm 1.0 mph1.6 kmh 30.46 in1031.5 mb 0.00 in0.0 mm 0.00 in0.0 mm 0.00 in0.0 mm
05:10 AM 26.4°F-3.1°C 24.1°F-4.4°C 91% Calm Calm -- 30.46 in1031.5 mb 0.00 in0.0 mm 0.00 in0.0 mm 0.00 in0.0 mm
05:15 AM 26.1°F-3.3°C 23.9°F-4.5°C 91% Calm Calm -- 30.46 in1031.5 mb 0.00 in0.0 mm 0.00 in0.0 mm 0.00 in0.0 mm
05:20 AM 25.7°F-3.5°C 23.4°F-4.8°C 91% Calm Calm -- 30.46 in1031.5 mb 0.00 in0.0 mm 0.00 in0.0 mm 0.00 in0.0 mm
05:25 AM 25.3°F-3.7°C 23.0°F-5.0°C 91% Calm Calm -- 30.46 in1031.5 mb 0.00 in0.0 mm 0.00 in0.0 mm 0.00 in0.0 mm
05:30 AM 25.0°F-3.9°C 22.8°F-5.1°C 91% Calm Calm -- 30.47 in1031.8 mb 0.00 in0.0 mm 0.00 in0.0 mm 0.00 in0.0 mm
05:35 AM 24.8°F-4.0°C 22.5°F-5.3°C 91% Calm Calm -- 30.47 in1031.8 mb 0.00 in0.0 mm 0.00 in0.0 mm 0.00 in0.0 mm
05:40 AM 25.0°F-3.9°C 22.8°F-5.1°C 92% Calm Calm -- 30.47 in1031.8 mb 0.00 in0.0 mm 0.00 in0.0 mm 0.00 in0.0 mm
05:45 AM 25.2°F-3.8°C 23.2°F-4.9°C 92% Calm Calm -- 30.47 in1031.8 mb 0.00 in0.0 mm 0.00 in0.0 mm 0.00 in0.0 mm
05:50 AM 25.3°F-3.7°C 23.4°F-4.8°C 92% Calm Calm -- 30.47 in1031.8 mb 0.00 in0.0 mm 0.00 in0.0 mm 0.00 in0.0 mm
05:55 AM 25.5°F-3.6°C 23.5°F-4.7°C 92% Calm Calm -- 30.48 in1032.2 mb 0.00 in0.0 mm 0.00 in0.0 mm 0.00 in0.0 mm
06:00 AM 25.5°F-3.6°C 23.5°F-4.7°C 92% Calm Calm -- 30.48 in1032.2 mb 0.00 in0.0 mm 0.00 in0.0 mm 0.00 in0.0 mm
06:05 AM 25.5°F-3.6°C 23.5°F-4.7°C 92% Calm Calm -- 30.48 in1032.2 mb 0.00 in0.0 mm 0.00 in0.0 mm 0.00 in0.0 mm
06:10 AM 26.1°F-3.3°C 24.3°F-4.3°C 93% Calm Calm -- 30.48 in1032.2 mb 0.00 in0.0 mm 0.00 in0.0 mm 0.00 in0.0 mm
06:15 AM 26.2°F-3.2°C 24.6°F-4.1°C 93% Calm Calm -- 30.48 in1032.2 mb 0.00 in0.0 mm 0.00 in0.0 mm 0.00 in0.0 mm
06:20 AM 26.6°F-3.0°C 24.8°F-4.0°C 93% Calm Calm -- 30.48 in1032.2 mb 0.00 in0.0 mm 0.00 in0.0 mm 0.00 in0.0 mm
06:25 AM 26.8°F-2.9°C 25.0°F-3.9°C 93% Calm Calm -- 30.49 in1032.5 mb 0.00 in0.0 mm 0.00 in0.0 mm 0.00 in0.0 mm
06:30 AM 26.2°F-3.2°C 24.3°F-4.3°C 92% Calm Calm -- 30.49 in1032.5 mb 0.00 in0.0 mm 0.00 in0.0 mm 0.00 in0.0 mm
06:35 AM 26.2°F-3.2°C 24.6°F-4.1°C 93% Calm Calm -- 30.49 in1032.5 mb 0.00 in0.0 mm 0.00 in0.0 mm 0.00 in0.0 mm
06:40 AM 26.6°F-3.0°C 24.8°F-4.0°C 93% Calm Calm -- 30.49 in1032.5 mb 0.00 in0.0 mm 0.00 in0.0 mm 0.00 in0.0 mm
06:45 AM 27.7°F-2.4°C 25.9°F-3.4°C 93% Calm Calm -- 30.49 in1032.5 mb 0.00 in0.0 mm 0.00 in0.0 mm 0.00 in0.0 mm
06:50 AM 28.9°F-1.7°C 27.1°F-2.7°C 93% Calm Calm -- 30.49 in1032.5 mb 0.00 in0.0 mm 0.00 in0.0 mm 0.00 in0.0 mm
06:55 AM 30.2°F-1.0°C 28.8°F-1.8°C 94% Calm Calm -- 30.49 in1032.5 mb 0.00 in0.0 mm 0.00 in0.0 mm 0.00 in0.0 mm
07:00 AM 31.5°F-0.3°C 30.0°F-1.1°C 94% Calm Calm -- 30.49 in1032.5 mb 0.00 in0.0 mm 0.00 in0.0 mm 0.00 in0.0 mm
07:05 AM 31.8°F-0.1°C 30.0°F-1.1°C 93% Calm Calm -- 30.50 in1032.8 mb 0.00 in0.0 mm 0.00 in0.0 mm 0.00 in0.0 mm
07:10 AM 32.4°F0.2°C 30.6°F-0.8°C 93% Calm Calm -- 30.50 in1032.8 mb 0.00 in0.0 mm 0.00 in0.0 mm 0.00 in0.0 mm
07:15 AM 32.4°F0.2°C 30.4°F-0.9°C 92% Calm Calm -- 30.50 in1032.8 mb 0.00 in0.0 mm 0.00 in0.0 mm 0.00 in0.0 mm
07:20 AM 32.4°F0.2°C 29.7°F-1.3°C 90% Calm Calm -- 30.50 in1032.8 mb 0.00 in0.0 mm 0.00 in0.0 mm 0.00 in0.0 mm
07:25 AM 32.9°F0.5°C 30.2°F-1.0°C 90% Calm Calm 1.0 mph1.6 kmh 30.50 in1032.8 mb 0.00 in0.0 mm 0.00 in0.0 mm 0.00 in0.0 mm
07:30 AM 33.4°F0.8°C 30.6°F-0.8°C 89% Calm Calm 1.0 mph1.6 kmh 30.50 in1032.8 mb 0.00 in0.0 mm 0.00 in0.0 mm 0.00 in0.0 mm
07:35 AM 34.2°F1.2°C 30.9°F-0.6°C 88% Calm Calm 1.0 mph1.6 kmh 30.50 in1032.8 mb 0.00 in0.0 mm 0.00 in0.0 mm 0.00 in0.0 mm
07:40 AM 34.2°F1.2°C 30.4°F-0.9°C 86% Calm Calm 1.0 mph1.6 kmh 30.50 in1032.8 mb 0.00 in0.0 mm 0.00 in0.0 mm 0.00 in0.0 mm
07:45 AM 34.3°F1.3°C 30.4°F-0.9°C 85% Calm Calm 1.0 mph1.6 kmh 30.51 in1033.2 mb 0.00 in0.0 mm 0.00 in0.0 mm 0.00 in0.0 mm
07:50 AM 35.4°F1.9°C 31.6°F-0.2°C 86% Calm Calm 1.0 mph1.6 kmh 30.51 in1033.2 mb 0.00 in0.0 mm 0.00 in0.0 mm 0.00 in0.0 mm
07:55 AM 36.3°F2.4°C 32.4°F0.2°C 85% Calm Calm 1.0 mph1.6 kmh 30.51 in1033.2 mb 0.00 in0.0 mm 0.00 in0.0 mm 0.00 in0.0 mm
08:00 AM 36.3°F2.4°C 31.3°F-0.4°C 82% Calm Calm 1.0 mph1.6 kmh 30.51 in1033.2 mb 0.00 in0.0 mm 0.00 in0.0 mm 0.00 in0.0 mm
08:05 AM 35.8°F2.1°C 30.4°F-0.9°C 81% Calm Calm 1.0 mph1.6 kmh 30.52 in1033.5 mb 0.00 in0.0 mm 0.00 in0.0 mm 0.00 in0.0 mm
08:10 AM 36.0°F2.2°C 30.9°F-0.6°C 82% Calm Calm 1.0 mph1.6 kmh 30.52 in1033.5 mb 0.00 in0.0 mm 0.00 in0.0 mm 0.00 in0.0 mm
08:15 AM 36.1°F2.3°C 31.3°F-0.4°C 82% Calm Calm 2.0 mph3.2 kmh 30.52 in1033.5 mb 0.00 in0.0 mm 0.00 in0.0 mm 0.00 in0.0 mm
08:20 AM 36.7°F2.6°C 31.3°F-0.4°C 81% Calm Calm 2.0 mph3.2 kmh 30.52 in1033.5 mb 0.00 in0.0 mm 0.00 in0.0 mm 0.00 in0.0 mm
08:25 AM 37.0°F2.8°C 31.5°F-0.3°C 80% Calm Calm 2.0 mph3.2 kmh 30.52 in1033.5 mb 0.00 in0.0 mm 0.00 in0.0 mm 0.00 in0.0 mm
08:30 AM 37.2°F2.9°C 31.3°F-0.4°C 79% Calm Calm 2.0 mph3.2 kmh 30.52 in1033.5 mb 0.00 in0.0 mm 0.00 in0.0 mm 0.00 in0.0 mm
08:35 AM 37.4°F3.0°C 31.5°F-0.3°C 79% 1.0 mph SW1.6 kmh SW 2.0 mph3.2 kmh 30.52 in1033.5 mb 0.00 in0.0 mm 0.00 in0.0 mm 0.00 in0.0 mm
08:40 AM 37.9°F3.3°C 32.0°F0.0°C 79% Calm Calm 2.0 mph3.2 kmh 30.52 in1033.5 mb 0.00 in0.0 mm 0.00 in0.0 mm 0.00 in0.0 mm
08:45 AM 38.8°F3.8°C 32.4°F0.2°C 77% Calm Calm 1.0 mph1.6 kmh 30.52 in1033.5 mb 0.00 in0.0 mm 0.00 in0.0 mm 0.00 in0.0 mm
08:50 AM 38.8°F3.8°C 31.6°F-0.2°C 75% Calm Calm 2.0 mph3.2 kmh 30.52 in1033.5 mb 0.00 in0.0 mm 0.00 in0.0 mm 0.00 in0.0 mm
08:55 AM 39.4°F4.1°C 32.2°F0.1°C 75% 1.0 mph SW1.6 kmh SW 2.0 mph3.2 kmh 30.52 in1033.5 mb 0.00 in0.0 mm 0.00 in0.0 mm 0.00 in0.0 mm
09:00 AM 40.3°F4.6°C 33.3°F0.7°C 76% Calm Calm 2.0 mph3.2 kmh 30.52 in1033.5 mb 0.00 in0.0 mm 0.00 in0.0 mm 0.00 in0.0 mm
09:05 AM 40.8°F4.9°C 32.9°F0.5°C 73% Calm Calm 3.0 mph4.8 kmh 30.52 in1033.5 mb 0.00 in0.0 mm 0.00 in0.0 mm 0.00 in0.0 mm
09:10 AM 41.5°F5.3°C 33.6°F0.9°C 73% Calm Calm 3.0 mph4.8 kmh 30.52 in1033.5 mb 0.00 in0.0 mm 0.00 in0.0 mm 0.00 in0.0 mm
09:15 AM 41.4°F5.2°C 32.9°F0.5°C 72% 1.0 mph SW1.6 kmh SW 4.0 mph6.4 kmh 30.52 in1033.5 mb 0.00 in0.0 mm 0.00 in0.0 mm 0.00 in0.0 mm
09:20 AM 41.4°F5.2°C 33.1°F0.6°C 72% 2.0 mph SW3.2 kmh SW 4.0 mph6.4 kmh 30.52 in1033.5 mb 0.00 in0.0 mm 0.00 in0.0 mm 0.00 in0.0 mm
09:25 AM 41.7°F5.4°C 33.3°F0.7°C 72% 2.0 mph WSW3.2 kmh WSW 4.0 mph6.4 kmh 30.53 in1033.9 mb 0.00 in0.0 mm 0.00 in0.0 mm 0.00 in0.0 mm
09:30 AM 42.1°F5.6°C 32.9°F0.5°C 70% 1.0 mph WNW1.6 kmh WNW 4.0 mph6.4 kmh 30.52 in1033.5 mb 0.00 in0.0 mm 0.00 in0.0 mm 0.00 in0.0 mm
09:35 AM 42.4°F5.8°C 32.9°F0.5°C 69% 1.0 mph NW1.6 kmh NW 4.0 mph6.4 kmh 30.52 in1033.5 mb 0.00 in0.0 mm 0.00 in0.0 mm 0.00 in0.0 mm
09:40 AM 42.4°F5.8°C 32.5°F0.3°C 68% 2.0 mph WSW3.2 kmh WSW 5.0 mph8.0 kmh 30.53 in1033.9 mb 0.00 in0.0 mm 0.00 in0.0 mm 0.00 in0.0 mm
09:45 AM 43.0°F6.1°C 33.4°F0.8°C 69% 2.0 mph SW3.2 kmh SW 5.0 mph8.0 kmh 30.53 in1033.9 mb 0.00 in0.0 mm 0.00 in0.0 mm 0.00 in0.0 mm
09:50 AM 43.0°F6.1°C 32.4°F0.2°C 66% 2.0 mph SW3.2 kmh SW 6.0 mph9.7 kmh 30.53 in1033.9 mb 0.00 in0.0 mm 0.00 in0.0 mm 0.00 in0.0 mm
09:55 AM 43.2°F6.2°C 32.9°F0.5°C 67% 2.0 mph WSW3.2 kmh WSW 6.0 mph9.7 kmh 30.53 in1033.9 mb 0.00 in0.0 mm 0.00 in0.0 mm 0.00 in0.0 mm
10:00 AM 43.7°F6.5°C 33.1°F0.6°C 66% 1.0 mph WSW1.6 kmh WSW 4.0 mph6.4 kmh 30.52 in1033.5 mb 0.00 in0.0 mm 0.00 in0.0 mm 0.00 in0.0 mm
10:05 AM 44.2°F6.8°C 33.3°F0.7°C 65% 1.0 mph WSW1.6 kmh WSW 5.0 mph8.0 kmh 30.52 in1033.5 mb 0.00 in0.0 mm 0.00 in0.0 mm 0.00 in0.0 mm
10:10 AM 45.0°F7.2°C 33.1°F0.6°C 63% 1.0 mph WSW1.6 kmh WSW 5.0 mph8.0 kmh 30.52 in1033.5 mb 0.00 in0.0 mm 0.00 in0.0 mm 0.00 in0.0 mm
10:15 AM 44.2°F6.8°C 32.7°F0.4°C 64% 2.0 mph SW3.2 kmh SW 9.0 mph14.5 kmh 30.53 in1033.9 mb 0.00 in0.0 mm 0.00 in0.0 mm 0.00 in0.0 mm
10:20 AM 44.1°F6.7°C 32.2°F0.1°C 63% 4.0 mph SW6.4 kmh SW 10.0 mph16.1 kmh 30.53 in1033.9 mb 0.00 in0.0 mm 0.00 in0.0 mm 0.00 in0.0 mm
10:25 AM 44.4°F6.9°C 33.1°F0.6°C 64% 3.0 mph SW4.8 kmh SW 10.0 mph16.1 kmh 30.53 in1033.9 mb 0.00 in0.0 mm 0.00 in0.0 mm 0.00 in0.0 mm
10:30 AM 45.3°F7.4°C 32.2°F0.1°C 60% 2.0 mph WSW3.2 kmh WSW 6.0 mph9.7 kmh 30.53 in1033.9 mb 0.00 in0.0 mm 0.00 in0.0 mm 0.00 in0.0 mm
10:35 AM 45.7°F7.6°C 33.1°F0.6°C 61% 1.0 mph WSW1.6 kmh WSW 6.0 mph9.7 kmh 30.53 in1033.9 mb 0.00 in0.0 mm 0.00 in0.0 mm 0.00 in0.0 mm
10:40 AM 45.9°F7.7°C 32.0°F0.0°C 58% 2.0 mph WSW3.2 kmh WSW 9.0 mph14.5 kmh 30.53 in1033.9 mb 0.00 in0.0 mm 0.00 in0.0 mm 0.00 in0.0 mm
10:45 AM 45.5°F7.5°C 31.1°F-0.5°C 57% 3.0 mph SW4.8 kmh SW 10.0 mph16.1 kmh 30.53 in1033.9 mb 0.00 in0.0 mm 0.00 in0.0 mm 0.00 in0.0 mm
10:50 AM 46.6°F8.1°C 31.6°F-0.2°C 56% 3.0 mph SW4.8 kmh SW 10.0 mph16.1 kmh 30.53 in1033.9 mb 0.00 in0.0 mm 0.00 in0.0 mm 0.00 in0.0 mm
10:55 AM 46.8°F8.2°C 30.6°F-0.8°C 53% 2.0 mph SW3.2 kmh SW 8.0 mph12.9 kmh 30.53 in1033.9 mb 0.00 in0.0 mm 0.00 in0.0 mm 0.00 in0.0 mm
11:00 AM 47.3°F8.5°C 31.5°F-0.3°C 54% 2.0 mph SW3.2 kmh SW 8.0 mph12.9 kmh 30.53 in1033.9 mb 0.00 in0.0 mm 0.00 in0.0 mm 0.00 in0.0 mm
11:05 AM 47.5°F8.6°C 30.2°F-1.0°C 51% 2.0 mph WSW3.2 kmh WSW 7.0 mph11.3 kmh 30.53 in1033.9 mb 0.00 in0.0 mm 0.00 in0.0 mm 0.00 in0.0 mm
11:10 AM 46.9°F8.3°C 29.3°F-1.5°C 50% 2.0 mph WSW3.2 kmh WSW 7.0 mph11.3 kmh 30.53 in1033.9 mb 0.00 in0.0 mm 0.00 in0.0 mm 0.00 in0.0 mm
11:15 AM 46.9°F8.3°C 30.2°F-1.0°C 52% 2.0 mph WSW3.2 kmh WSW 7.0 mph11.3 kmh 30.53 in1033.9 mb 0.00 in0.0 mm 0.00 in0.0 mm 0.00 in0.0 mm
11:20 AM 46.9°F8.3°C 28.8°F-1.8°C 49% 2.0 mph W3.2 kmh W 7.0 mph11.3 kmh 30.54 in1034.2 mb 0.00 in0.0 mm 0.00 in0.0 mm 0.00 in0.0 mm
11:25 AM 46.4°F8.0°C 30.6°F-0.8°C 54% 1.0 mph NW1.6 kmh NW 4.0 mph6.4 kmh 30.54 in1034.2 mb 0.00 in0.0 mm 0.00 in0.0 mm 0.00 in0.0 mm
11:30 AM 46.4°F8.0°C 31.5°F-0.3°C 56% 1.0 mph NW1.6 kmh NW 5.0 mph8.0 kmh 30.53 in1033.9 mb 0.00 in0.0 mm 0.00 in0.0 mm 0.00 in0.0 mm
11:35 AM 45.9°F7.7°C 30.6°F-0.8°C 55% 2.0 mph NW3.2 kmh NW 7.0 mph11.3 kmh 30.54 in1034.2 mb 0.00 in0.0 mm 0.00 in0.0 mm 0.00 in0.0 mm
11:40 AM 45.7°F7.6°C 29.8°F-1.2°C 54% 2.0 mph NW3.2 kmh NW 7.0 mph11.3 kmh 30.54 in1034.2 mb 0.00 in0.0 mm 0.00 in0.0 mm 0.00 in0.0 mm
11:45 AM 45.3°F7.4°C 29.1°F-1.6°C 53% 1.0 mph NW1.6 kmh NW 4.0 mph6.4 kmh 30.54 in1034.2 mb 0.00 in0.0 mm 0.00 in0.0 mm 0.00 in0.0 mm
11:50 AM 45.1°F7.3°C 29.1°F-1.6°C 53% 1.0 mph WNW1.6 kmh WNW 4.0 mph6.4 kmh 30.54 in1034.2 mb 0.00 in0.0 mm 0.00 in0.0 mm 0.00 in0.0 mm
11:55 AM 45.1°F7.3°C 29.5°F-1.4°C 54% Calm Calm 3.0 mph4.8 kmh 30.54 in1034.2 mb 0.00 in0.0 mm 0.00 in0.0 mm 0.00 in0.0 mm
12:00 PM 45.0°F7.2°C 28.9°F-1.7°C 53% Calm Calm 3.0 mph4.8 kmh 30.54 in1034.2 mb 0.00 in0.0 mm 0.00 in0.0 mm 0.00 in0.0 mm
12:05 PM 45.9°F7.7°C 29.1°F-1.6°C 52% Calm Calm 4.0 mph6.4 kmh 30.54 in1034.2 mb 0.00 in0.0 mm 0.00 in0.0 mm 0.00 in0.0 mm
12:10 PM 46.8°F8.2°C 29.7°F-1.3°C 51% 1.0 mph NW1.6 kmh NW 4.0 mph6.4 kmh 30.54 in1034.2 mb 0.00 in0.0 mm 0.00 in0.0 mm 0.00 in0.0 mm
12:15 PM 46.9°F8.3°C 29.3°F-1.5°C 50% 1.0 mph WNW1.6 kmh WNW 4.0 mph6.4 kmh 30.54 in1034.2 mb 0.00 in0.0 mm 0.00 in0.0 mm 0.00 in0.0 mm
12:20 PM 46.9°F8.3°C 29.3°F-1.5°C 50% Calm Calm 2.0 mph3.2 kmh 30.54 in1034.2 mb 0.00 in0.0 mm 0.00 in0.0 mm 0.00 in0.0 mm
12:25 PM 47.1°F8.4°C 28.9°F-1.7°C 49% Calm Calm 3.0 mph4.8 kmh 30.54 in1034.2 mb 0.00 in0.0 mm 0.00 in0.0 mm 0.00 in0.0 mm
12:30 PM 46.9°F8.3°C 29.3°F-1.5°C 50% Calm Calm 3.0 mph4.8 kmh 30.54 in1034.2 mb 0.00 in0.0 mm 0.00 in0.0 mm 0.00 in0.0 mm
12:35 PM 46.2°F7.9°C 29.1°F-1.6°C 51% 1.0 mph NW1.6 kmh NW 6.0 mph9.7 kmh 30.54 in1034.2 mb 0.00 in0.0 mm 0.00 in0.0 mm 0.00 in0.0 mm
12:40 PM 46.2°F7.9°C 29.1°F-1.6°C 51% 2.0 mph NW3.2 kmh NW 6.0 mph9.7 kmh 30.54 in1034.2 mb 0.00 in0.0 mm 0.00 in0.0 mm 0.00 in0.0 mm
12:45 PM 46.0°F7.8°C 29.3°F-1.5°C 52% 1.0 mph NW1.6 kmh NW 6.0 mph9.7 kmh 30.54 in1034.2 mb 0.00 in0.0 mm 0.00 in0.0 mm 0.00 in0.0 mm
12:50 PM 45.9°F7.7°C 28.8°F-1.8°C 51% 2.0 mph NW3.2 kmh NW 8.0 mph12.9 kmh 30.54 in1034.2 mb 0.00 in0.0 mm 0.00 in0.0 mm 0.00 in0.0 mm
12:55 PM 45.7°F7.6°C 28.9°F-1.7°C 52% 2.0 mph NW3.2 kmh NW 8.0 mph12.9 kmh 30.54 in1034.2 mb 0.00 in0.0 mm 0.00 in0.0 mm 0.00 in0.0 mm
01:00 PM 45.5°F7.5°C 29.3°F-1.5°C 53% 2.0 mph NW3.2 kmh NW 7.0 mph11.3 kmh 30.54 in1034.2 mb 0.00 in0.0 mm 0.00 in0.0 mm 0.00 in0.0 mm
01:05 PM 45.5°F7.5°C 29.3°F-1.5°C 53% 2.0 mph NW3.2 kmh NW 6.0 mph9.7 kmh 30.54 in1034.2 mb 0.00 in0.0 mm 0.00 in0.0 mm 0.00 in0.0 mm
01:10 PM 45.3°F7.4°C 29.1°F-1.6°C 53% 2.0 mph NW3.2 kmh NW 5.0 mph8.0 kmh 30.54 in1034.2 mb 0.00 in0.0 mm 0.00 in0.0 mm 0.00 in0.0 mm
01:15 PM 45.5°F7.5°C 30.2°F-1.0°C 55% 1.0 mph NW1.6 kmh NW 5.0 mph8.0 kmh 30.54 in1034.2 mb 0.00 in0.0 mm 0.00 in0.0 mm 0.00 in0.0 mm
01:20 PM 47.3°F8.5°C 31.1°F-0.5°C 53% 1.0 mph NW1.6 kmh NW 6.0 mph9.7 kmh 30.53 in1033.9 mb 0.00 in0.0 mm 0.00 in0.0 mm 0.00 in0.0 mm
01:25 PM 47.7°F8.7°C 30.4°F-0.9°C 51% 2.0 mph NW3.2 kmh NW 7.0 mph11.3 kmh 30.54 in1034.2 mb 0.00 in0.0 mm 0.00 in0.0 mm 0.00 in0.0 mm
01:30 PM 47.8°F8.8°C 30.6°F-0.8°C 51% 2.0 mph NW3.2 kmh NW 7.0 mph11.3 kmh 30.53 in1033.9 mb 0.00 in0.0 mm 0.00 in0.0 mm 0.00 in0.0 mm
01:35 PM 48.0°F8.9°C 30.2°F-1.0°C 50% 1.0 mph WNW1.6 kmh WNW 4.0 mph6.4 kmh 30.53 in1033.9 mb 0.00 in0.0 mm 0.00 in0.0 mm 0.00 in0.0 mm
01:40 PM 48.7°F9.3°C 30.4°F-0.9°C 49% 1.0 mph WNW1.6 kmh WNW 7.0 mph11.3 kmh 30.53 in1033.9 mb 0.00 in0.0 mm 0.00 in0.0 mm 0.00 in0.0 mm
01:45 PM 48.6°F9.2°C 30.2°F-1.0°C 49% 2.0 mph W3.2 kmh W 8.0 mph12.9 kmh 30.53 in1033.9 mb 0.00 in0.0 mm 0.00 in0.0 mm 0.00 in0.0 mm
01:50 PM 47.3°F8.5°C 29.7°F-1.3°C 50% 2.0 mph NW3.2 kmh NW 8.0 mph12.9 kmh 30.52 in1033.5 mb 0.00 in0.0 mm 0.00 in0.0 mm 0.00 in0.0 mm
01:55 PM 46.9°F8.3°C 30.2°F-1.0°C 52% 3.0 mph NW4.8 kmh NW 7.0 mph11.3 kmh 30.52 in1033.5 mb 0.00 in0.0 mm 0.00 in0.0 mm 0.00 in0.0 mm
02:00 PM 46.8°F8.2°C 29.7°F-1.3°C 51% 2.0 mph NW3.2 kmh NW 9.0 mph14.5 kmh 30.52 in1033.5 mb 0.00 in0.0 mm 0.00 in0.0 mm 0.00 in0.0 mm
02:05 PM 46.2°F7.9°C 30.0°F-1.1°C 53% 3.0 mph NW4.8 kmh NW 9.0 mph14.5 kmh 30.52 in1033.5 mb 0.00 in0.0 mm 0.00 in0.0 mm 0.00 in0.0 mm
02:10 PM 45.9°F7.7°C 29.7°F-1.3°C 53% 3.0 mph NW4.8 kmh NW 7.0 mph11.3 kmh 30.52 in1033.5 mb 0.00 in0.0 mm 0.00 in0.0 mm 0.00 in0.0 mm
02:15 PM 45.5°F7.5°C 29.3°F-1.5°C 53% 3.0 mph NW4.8 kmh NW 7.0 mph11.3 kmh 30.52 in1033.5 mb 0.00 in0.0 mm 0.00 in0.0 mm 0.00 in0.0 mm
02:20 PM 45.5°F7.5°C 29.3°F-1.5°C 53% 2.0 mph NW3.2 kmh NW 6.0 mph9.7 kmh 30.52 in1033.5 mb 0.00 in0.0 mm 0.00 in0.0 mm 0.00 in0.0 mm
02:25 PM 45.9°F7.7°C 29.7°F-1.3°C 53% 1.0 mph NW1.6 kmh NW 4.0 mph6.4 kmh 30.52 in1033.5 mb 0.00 in0.0 mm 0.00 in0.0 mm 0.00 in0.0 mm
02:30 PM 46.8°F8.2°C 28.9°F-1.7°C 50% 1.0 mph WSW1.6 kmh WSW 10.0 mph16.1 kmh 30.51 in1033.2 mb 0.00 in0.0 mm 0.00 in0.0 mm 0.00 in0.0 mm
02:35 PM 47.7°F8.7°C 30.4°F-0.9°C 51% 2.0 mph SW3.2 kmh SW 10.0 mph16.1 kmh 30.51 in1033.2 mb 0.00 in0.0 mm 0.00 in0.0 mm 0.00 in0.0 mm
02:40 PM 48.4°F9.1°C 30.0°F-1.1°C 49% 3.0 mph WSW4.8 kmh WSW 10.0 mph16.1 kmh 30.51 in1033.2 mb 0.00 in0.0 mm 0.00 in0.0 mm 0.00 in0.0 mm
02:45 PM 48.6°F9.2°C 29.1°F-1.6°C 47% 2.0 mph W3.2 kmh W 8.0 mph12.9 kmh 30.51 in1033.2 mb 0.00 in0.0 mm 0.00 in0.0 mm 0.00 in0.0 mm
02:50 PM 48.7°F9.3°C 28.4°F-2.0°C 45% 2.0 mph W3.2 kmh W 8.0 mph12.9 kmh 30.51 in1033.2 mb 0.00 in0.0 mm 0.00 in0.0 mm 0.00 in0.0 mm
02:55 PM 48.2°F9.0°C 27.9°F-2.3°C 45% 1.0 mph WSW1.6 kmh WSW 6.0 mph9.7 kmh 30.52 in1033.5 mb 0.00 in0.0 mm 0.00 in0.0 mm 0.00 in0.0 mm
03:00 PM 47.8°F8.8°C 29.5°F-1.4°C 49% 2.0 mph WSW3.2 kmh WSW 7.0 mph11.3 kmh 30.52 in1033.5 mb 0.00 in0.0 mm 0.00 in0.0 mm 0.00 in0.0 mm
03:05 PM 46.9°F8.3°C 29.3°F-1.5°C 50% 3.0 mph NW4.8 kmh NW 9.0 mph14.5 kmh 30.52 in1033.5 mb 0.00 in0.0 mm 0.00 in0.0 mm 0.00 in0.0 mm
03:10 PM 46.8°F8.2°C 29.5°F-1.4°C 51% 3.0 mph NW4.8 kmh NW 9.0 mph14.5 kmh 30.52 in1033.5 mb 0.00 in0.0 mm 0.00 in0.0 mm 0.00 in0.0 mm
03:15 PM 46.4°F8.0°C 29.3°F-1.5°C 51% 2.0 mph NW3.2 kmh NW 8.0 mph12.9 kmh 30.52 in1033.5 mb 0.00 in0.0 mm 0.00 in0.0 mm 0.00 in0.0 mm
03:20 PM 46.9°F8.3°C 30.2°F-1.0°C 52% 1.0 mph WNW1.6 kmh WNW 4.0 mph6.4 kmh 30.52 in1033.5 mb 0.00 in0.0 mm 0.00 in0.0 mm 0.00 in0.0 mm
03:25 PM 47.7°F8.7°C 29.8°F-1.2°C 50% 1.0 mph W1.6 kmh W 4.0 mph6.4 kmh 30.52 in1033.5 mb 0.00 in0.0 mm 0.00 in0.0 mm 0.00 in0.0 mm
03:30 PM 47.3°F8.5°C 28.0°F-2.2°C 47% Calm Calm 3.0 mph4.8 kmh 30.52 in1033.5 mb 0.00 in0.0 mm 0.00 in0.0 mm 0.00 in0.0 mm
03:35 PM 47.1°F8.4°C 28.0°F-2.2°C 47% 1.0 mph NW1.6 kmh NW 3.0 mph4.8 kmh 30.52 in1033.5 mb 0.00 in0.0 mm 0.00 in0.0 mm 0.00 in0.0 mm
03:40 PM 47.1°F8.4°C 27.5°F-2.5°C 46% 1.0 mph NW1.6 kmh NW 6.0 mph9.7 kmh 30.52 in1033.5 mb 0.00 in0.0 mm 0.00 in0.0 mm 0.00 in0.0 mm
03:45 PM 47.7°F8.7°C 28.4°F-2.0°C 47% 1.0 mph NW1.6 kmh NW 6.0 mph9.7 kmh 30.52 in1033.5 mb 0.00 in0.0 mm 0.00 in0.0 mm 0.00 in0.0 mm
03:50 PM 48.4°F9.1°C 28.6°F-1.9°C 46% Calm Calm 3.0 mph4.8 kmh 30.52 in1033.5 mb 0.00 in0.0 mm 0.00 in0.0 mm 0.00 in0.0 mm
03:55 PM 48.4°F9.1°C 28.0°F-2.2°C 45% Calm Calm 3.0 mph4.8 kmh 30.51 in1033.2 mb 0.00 in0.0 mm 0.00 in0.0 mm 0.00 in0.0 mm
04:00 PM 47.8°F8.8°C 28.6°F-1.9°C 47% 1.0 mph W1.6 kmh W 7.0 mph11.3 kmh 30.51 in1033.2 mb 0.00 in0.0 mm 0.00 in0.0 mm 0.00 in0.0 mm
04:05 PM 47.8°F8.8°C 29.7°F-1.3°C 49% 1.0 mph W1.6 kmh W 7.0 mph11.3 kmh 30.51 in1033.2 mb 0.00 in0.0 mm 0.00 in0.0 mm 0.00 in0.0 mm
04:10 PM 47.8°F8.8°C 29.1°F-1.6°C 48% Calm Calm 4.0 mph6.4 kmh 30.51 in1033.2 mb 0.00 in0.0 mm 0.00 in0.0 mm 0.00 in0.0 mm
04:15 PM 47.1°F8.4°C 28.9°F-1.7°C 49% 1.0 mph SW1.6 kmh SW 4.0 mph6.4 kmh 30.51 in1033.2 mb 0.00 in0.0 mm 0.00 in0.0 mm 0.00 in0.0 mm
04:20 PM 46.9°F8.3°C 29.3°F-1.5°C 50% Calm Calm 3.0 mph4.8 kmh 30.51 in1033.2 mb 0.00 in0.0 mm 0.00 in0.0 mm 0.00 in0.0 mm
04:25 PM 46.6°F8.1°C 28.8°F-1.8°C 50% Calm Calm 2.0 mph3.2 kmh 30.51 in1033.2 mb 0.00 in0.0 mm 0.00 in0.0 mm 0.00 in0.0 mm
04:30 PM 46.4°F8.0°C 29.3°F-1.5°C 51% Calm Calm 2.0 mph3.2 kmh 30.51 in1033.2 mb 0.00 in0.0 mm 0.00 in0.0 mm 0.00 in0.0 mm
04:35 PM 46.6°F8.1°C 29.3°F-1.5°C 51% Calm Calm 3.0 mph4.8 kmh 30.51 in1033.2 mb 0.00 in0.0 mm 0.00 in0.0 mm 0.00 in0.0 mm
04:40 PM 46.6°F8.1°C 28.8°F-1.8°C 50% Calm Calm 3.0 mph4.8 kmh 30.51 in1033.2 mb 0.00 in0.0 mm 0.00 in0.0 mm 0.00 in0.0 mm
04:45 PM 46.8°F8.2°C 29.1°F-1.6°C 50% 1.0 mph SW1.6 kmh SW 3.0 mph4.8 kmh 30.51 in1033.2 mb 0.00 in0.0 mm 0.00 in0.0 mm 0.00 in0.0 mm
04:50 PM 46.8°F8.2°C 28.6°F-1.9°C 49% 1.0 mph NW1.6 kmh NW 3.0 mph4.8 kmh 30.51 in1033.2 mb 0.00 in0.0 mm 0.00 in0.0 mm 0.00 in0.0 mm
04:55 PM 46.9°F8.3°C 28.8°F-1.8°C 49% 1.0 mph W1.6 kmh W 3.0 mph4.8 kmh 30.51 in1033.2 mb 0.00 in0.0 mm 0.00 in0.0 mm 0.00 in0.0 mm
05:00 PM 47.1°F8.4°C 29.5°F-1.4°C 50% Calm Calm 2.0 mph3.2 kmh 30.52 in1033.5 mb 0.00 in0.0 mm 0.00 in0.0 mm 0.00 in0.0 mm
05:05 PM 47.1°F8.4°C 29.5°F-1.4°C 50% Calm Calm 5.0 mph8.0 kmh 30.52 in1033.5 mb 0.00 in0.0 mm 0.00 in0.0 mm 0.00 in0.0 mm
05:10 PM 46.8°F8.2°C 29.1°F-1.6°C 50% 1.0 mph WSW1.6 kmh WSW 5.0 mph8.0 kmh 30.52 in1033.5 mb 0.00 in0.0 mm 0.00 in0.0 mm 0.00 in0.0 mm
05:15 PM 46.8°F8.2°C 28.9°F-1.7°C 50% 1.0 mph SW1.6 kmh SW 4.0 mph6.4 kmh 30.51 in1033.2 mb 0.00 in0.0 mm 0.00 in0.0 mm 0.00 in0.0 mm
05:20 PM 46.4°F8.0°C 28.8°F-1.8°C 50% Calm Calm 3.0 mph4.8 kmh 30.51 in1033.2 mb 0.00 in0.0 mm 0.00 in0.0 mm 0.00 in0.0 mm
05:25 PM 45.9°F7.7°C 28.8°F-1.8°C 51% Calm Calm 4.0 mph6.4 kmh 30.52 in1033.5 mb 0.00 in0.0 mm 0.00 in0.0 mm 0.00 in0.0 mm
05:30 PM 45.3°F7.4°C 29.3°F-1.5°C 53% 1.0 mph WSW1.6 kmh WSW 4.0 mph6.4 kmh 30.52 in1033.5 mb 0.00 in0.0 mm 0.00 in0.0 mm 0.00 in0.0 mm
05:35 PM 45.0°F7.2°C 29.3°F-1.5°C 54% 1.0 mph WSW1.6 kmh WSW 4.0 mph6.4 kmh 30.52 in1033.5 mb 0.00 in0.0 mm 0.00 in0.0 mm 0.00 in0.0 mm
05:40 PM 44.6°F7.0°C 29.8°F-1.2°C 56% Calm Calm 3.0 mph4.8 kmh 30.52 in1033.5 mb 0.00 in0.0 mm 0.00 in0.0 mm 0.00 in0.0 mm
05:45 PM 44.2°F6.8°C 29.8°F-1.2°C 57% Calm Calm 3.0 mph4.8 kmh 30.52 in1033.5 mb 0.00 in0.0 mm 0.00 in0.0 mm 0.00 in0.0 mm
05:50 PM 43.9°F6.6°C 29.7°F-1.3°C 57% Calm Calm 1.0 mph1.6 kmh 30.52 in1033.5 mb 0.00 in0.0 mm 0.00 in0.0 mm 0.00 in0.0 mm
05:55 PM 43.5°F6.4°C 29.8°F-1.2°C 58% Calm Calm -- 30.52 in1033.5 mb 0.00 in0.0 mm 0.00 in0.0 mm 0.00 in0.0 mm
06:00 PM 43.2°F6.2°C 29.7°F-1.3°C 59% Calm Calm -- 30.53 in1033.9 mb 0.00 in0.0 mm 0.00 in0.0 mm 0.00 in0.0 mm
06:05 PM 42.6°F5.9°C 29.7°F-1.3°C 60% Calm Calm -- 30.52 in1033.5 mb 0.00 in0.0 mm 0.00 in0.0 mm 0.00 in0.0 mm
06:10 PM 42.1°F5.6°C 29.7°F-1.3°C 61% Calm Calm -- 30.53 in1033.9 mb 0.00 in0.0 mm 0.00 in0.0 mm 0.00 in0.0 mm
06:15 PM 41.7°F5.4°C 29.7°F-1.3°C 62% Calm Calm -- 30.53 in1033.9 mb 0.00 in0.0 mm 0.00 in0.0 mm 0.00 in0.0 mm
06:20 PM 41.4°F5.2°C 29.3°F-1.5°C 62% Calm Calm -- 30.53 in1033.9 mb 0.00 in0.0 mm 0.00 in0.0 mm 0.00 in0.0 mm
06:25 PM 41.0°F5.0°C 29.3°F-1.5°C 63% Calm Calm -- 30.53 in1033.9 mb 0.00 in0.0 mm 0.00 in0.0 mm 0.00 in0.0 mm
06:30 PM 40.5°F4.7°C 28.9°F-1.7°C 63% Calm Calm -- 30.53 in1033.9 mb 0.00 in0.0 mm 0.00 in0.0 mm 0.00 in0.0 mm
06:35 PM 39.9°F4.4°C 28.4°F-2.0°C 63% Calm Calm -- 30.53 in1033.9 mb 0.00 in0.0 mm 0.00 in0.0 mm 0.00 in0.0 mm
06:40 PM 39.4°F4.1°C 28.2°F-2.1°C 64% Calm Calm -- 30.53 in1033.9 mb 0.00 in0.0 mm 0.00 in0.0 mm 0.00 in0.0 mm
06:45 PM 38.8°F3.8°C 28.0°F-2.2°C 65% Calm Calm -- 30.53 in1033.9 mb 0.00 in0.0 mm 0.00 in0.0 mm 0.00 in0.0 mm
06:50 PM 39.0°F3.9°C 28.6°F-1.9°C 66% Calm Calm -- 30.54 in1034.2 mb 0.00 in0.0 mm 0.00 in0.0 mm 0.00 in0.0 mm
06:55 PM 38.8°F3.8°C 28.6°F-1.9°C 66% Calm Calm -- 30.53 in1033.9 mb 0.00 in0.0 mm 0.00 in0.0 mm 0.00 in0.0 mm
07:00 PM 38.7°F3.7°C 28.4°F-2.0°C 66% Calm Calm -- 30.54 in1034.2 mb 0.00 in0.0 mm 0.00 in0.0 mm 0.00 in0.0 mm
07:05 PM 38.8°F3.8°C 28.4°F-2.0°C 66% Calm Calm -- 30.54 in1034.2 mb 0.00 in0.0 mm 0.00 in0.0 mm 0.00 in0.0 mm
07:10 PM 38.8°F3.8°C 28.4°F-2.0°C 66% Calm Calm -- 30.54 in1034.2 mb 0.00 in0.0 mm 0.00 in0.0 mm 0.00 in0.0 mm
07:15 PM 38.5°F3.6°C 28.0°F-2.2°C 66% Calm Calm -- 30.54 in1034.2 mb 0.00 in0.0 mm 0.00 in0.0 mm 0.00 in0.0 mm
07:20 PM 38.3°F3.5°C 28.2°F-2.1°C 67% Calm Calm -- 30.54 in1034.2 mb 0.00 in0.0 mm 0.00 in0.0 mm 0.00 in0.0 mm
07:25 PM 38.1°F3.4°C 28.6°F-1.9°C 68% Calm Calm -- 30.54 in1034.2 mb 0.00 in0.0 mm 0.00 in0.0 mm 0.00 in0.0 mm
07:30 PM 37.9°F3.3°C 28.8°F-1.8°C 69% Calm Calm -- 30.54 in1034.2 mb 0.00 in0.0 mm 0.00 in0.0 mm 0.00 in0.0 mm
07:35 PM 37.8°F3.2°C 28.6°F-1.9°C 69% Calm Calm -- 30.54 in1034.2 mb 0.00 in0.0 mm 0.00 in0.0 mm 0.00 in0.0 mm
07:40 PM 37.8°F3.2°C 28.4°F-2.0°C 69% Calm Calm -- 30.54 in1034.2 mb 0.00 in0.0 mm 0.00 in0.0 mm 0.00 in0.0 mm
07:45 PM 37.4°F3.0°C 28.6°F-1.9°C 70% Calm Calm -- 30.55 in1034.5 mb 0.00 in0.0 mm 0.00 in0.0 mm 0.00 in0.0 mm
07:50 PM 37.4°F3.0°C 28.9°F-1.7°C 71% Calm Calm -- 30.55 in1034.5 mb 0.00 in0.0 mm 0.00 in0.0 mm 0.00 in0.0 mm
07:55 PM 37.4°F3.0°C 28.9°F-1.7°C 71% Calm Calm -- 30.54 in1034.2 mb 0.00 in0.0 mm 0.00 in0.0 mm 0.00 in0.0 mm
08:00 PM 37.4°F3.0°C 28.9°F-1.7°C 71% Calm Calm 1.0 mph1.6 kmh 30.55 in1034.5 mb 0.00 in0.0 mm 0.00 in0.0 mm 0.00 in0.0 mm
08:05 PM 37.0°F2.8°C 28.4°F-2.0°C 71% Calm Calm 1.0 mph1.6 kmh 30.55 in1034.5 mb 0.00 in0.0 mm 0.00 in0.0 mm 0.00 in0.0 mm
08:10 PM 36.9°F2.7°C 28.4°F-2.0°C 71% 1.0 mph N1.6 kmh N 2.0 mph3.2 kmh 30.55 in1034.5 mb 0.00 in0.0 mm 0.00 in0.0 mm 0.00 in0.0 mm
08:15 PM 36.7°F2.6°C 28.0°F-2.2°C 71% 1.0 mph N1.6 kmh N 2.0 mph3.2 kmh 30.55 in1034.5 mb 0.00 in0.0 mm 0.00 in0.0 mm 0.00 in0.0 mm
08:20 PM 36.0°F2.2°C 27.9°F-2.3°C 72% 1.0 mph N1.6 kmh N 2.0 mph3.2 kmh 30.55 in1034.5 mb 0.00 in0.0 mm 0.00 in0.0 mm 0.00 in0.0 mm
08:25 PM 35.4°F1.9°C 27.7°F-2.4°C 73% 1.0 mph NNE1.6 kmh NNE 1.0 mph1.6 kmh 30.55 in1034.5 mb 0.00 in0.0 mm 0.00 in0.0 mm 0.00 in0.0 mm
08:30 PM 34.9°F1.6°C 27.5°F-2.5°C 74% Calm Calm 1.0 mph1.6 kmh 30.55 in1034.5 mb 0.00 in0.0 mm 0.00 in0.0 mm 0.00 in0.0 mm
08:35 PM 34.9°F1.6°C 27.9°F-2.3°C 75% Calm Calm 1.0 mph1.6 kmh 30.55 in1034.5 mb 0.00 in0.0 mm 0.00 in0.0 mm 0.00 in0.0 mm
08:40 PM 35.2°F1.8°C 27.9°F-2.3°C 74% Calm Calm 1.0 mph1.6 kmh 30.55 in1034.5 mb 0.00 in0.0 mm 0.00 in0.0 mm 0.00 in0.0 mm
08:45 PM 34.9°F1.6°C 27.5°F-2.5°C 74% Calm Calm 1.0 mph1.6 kmh 30.56 in1034.9 mb 0.00 in0.0 mm 0.00 in0.0 mm 0.00 in0.0 mm
08:50 PM 35.4°F1.9°C 28.4°F-2.0°C 75% Calm Calm -- 30.56 in1034.9 mb 0.00 in0.0 mm 0.00 in0.0 mm 0.00 in0.0 mm
08:55 PM 34.9°F1.6°C 27.5°F-2.5°C 74% Calm Calm -- 30.56 in1034.9 mb 0.00 in0.0 mm 0.00 in0.0 mm 0.00 in0.0 mm
09:00 PM 35.1°F1.7°C 28.0°F-2.2°C 75% Calm Calm -- 30.56 in1034.9 mb 0.00 in0.0 mm 0.00 in0.0 mm 0.00 in0.0 mm
09:05 PM 35.2°F1.8°C 27.9°F-2.3°C 74% Calm Calm -- 30.56 in1034.9 mb 0.00 in0.0 mm 0.00 in0.0 mm 0.00 in0.0 mm
09:10 PM 35.1°F1.7°C 28.0°F-2.2°C 75% Calm Calm -- 30.55 in1034.5 mb 0.00 in0.0 mm 0.00 in0.0 mm 0.00 in0.0 mm
09:15 PM 35.4°F1.9°C 28.4°F-2.0°C 75% Calm Calm -- 30.55 in1034.5 mb 0.00 in0.0 mm 0.00 in0.0 mm 0.00 in0.0 mm
09:20 PM 35.6°F2.0°C 28.0°F-2.2°C 74% Calm Calm -- 30.55 in1034.5 mb 0.00 in0.0 mm 0.00 in0.0 mm 0.00 in0.0 mm
09:25 PM 35.4°F1.9°C 27.9°F-2.3°C 74% Calm Calm -- 30.55 in1034.5 mb 0.00 in0.0 mm 0.00 in0.0 mm 0.00 in0.0 mm
09:30 PM 34.9°F1.6°C 27.9°F-2.3°C 75% Calm Calm -- 30.55 in1034.5 mb 0.00 in0.0 mm 0.00 in0.0 mm 0.00 in0.0 mm
09:35 PM 34.5°F1.4°C 27.3°F-2.6°C 75% Calm Calm -- 30.55 in1034.5 mb 0.00 in0.0 mm 0.00 in0.0 mm 0.00 in0.0 mm
09:40 PM 33.6°F0.9°C 27.0°F-2.8°C 76% Calm Calm -- 30.55 in1034.5 mb 0.00 in0.0 mm 0.00 in0.0 mm 0.00 in0.0 mm
09:45 PM 33.6°F0.9°C 27.5°F-2.5°C 78% Calm Calm -- 30.55 in1034.5 mb 0.00 in0.0 mm 0.00 in0.0 mm 0.00 in0.0 mm
09:50 PM 34.0°F1.1°C 27.7°F-2.4°C 78% Calm Calm -- 30.55 in1034.5 mb 0.00 in0.0 mm 0.00 in0.0 mm 0.00 in0.0 mm
09:55 PM 34.0°F1.1°C 27.7°F-2.4°C 78% Calm Calm -- 30.55 in1034.5 mb 0.00 in0.0 mm 0.00 in0.0 mm 0.00 in0.0 mm
10:00 PM 34.3°F1.3°C 28.2°F-2.1°C 78% Calm Calm -- 30.55 in1034.5 mb 0.00 in0.0 mm 0.00 in0.0 mm 0.00 in0.0 mm
10:05 PM 34.5°F1.4°C 28.0°F-2.2°C 77% Calm Calm -- 30.55 in1034.5 mb 0.00 in0.0 mm 0.00 in0.0 mm 0.00 in0.0 mm
10:10 PM 34.9°F1.6°C 28.0°F-2.2°C 76% Calm Calm -- 30.55 in1034.5 mb 0.00 in0.0 mm 0.00 in0.0 mm 0.00 in0.0 mm
10:15 PM 34.7°F1.5°C 27.9°F-2.3°C 76% Calm Calm -- 30.55 in1034.5 mb 0.00 in0.0 mm 0.00 in0.0 mm 0.00 in0.0 mm
10:20 PM 34.3°F1.3°C 27.7°F-2.4°C 76% Calm Calm -- 30.55 in1034.5 mb 0.00 in0.0 mm 0.00 in0.0 mm 0.00 in0.0 mm
10:25 PM 34.2°F1.2°C 27.5°F-2.5°C 76% Calm Calm -- 30.55 in1034.5 mb 0.00 in0.0 mm 0.00 in0.0 mm 0.00 in0.0 mm
10:30 PM 34.2°F1.2°C 27.7°F-2.4°C 77% Calm Calm -- 30.55 in1034.5 mb 0.00 in0.0 mm 0.00 in0.0 mm 0.00 in0.0 mm
10:35 PM 34.2°F1.2°C 27.7°F-2.4°C 77% Calm Calm -- 30.55 in1034.5 mb 0.00 in0.0 mm 0.00 in0.0 mm 0.00 in0.0 mm
10:40 PM 34.2°F1.2°C 27.7°F-2.4°C 77% Calm Calm -- 30.56 in1034.9 mb 0.00 in0.0 mm 0.00 in0.0 mm 0.00 in0.0 mm
10:45 PM 34.3°F1.3°C 27.9°F-2.3°C 77% Calm Calm -- 30.56 in1034.9 mb 0.00 in0.0 mm 0.00 in0.0 mm 0.00 in0.0 mm
10:50 PM 34.3°F1.3°C 27.9°F-2.3°C 77% Calm Calm -- 30.56 in1034.9 mb 0.00 in0.0 mm 0.00 in0.0 mm 0.00 in0.0 mm
10:55 PM 34.3°F1.3°C 27.9°F-2.3°C 77% Calm Calm -- 30.56 in1034.9 mb 0.00 in0.0 mm 0.00 in0.0 mm 0.00 in0.0 mm
11:00 PM 34.0°F1.1°C 27.5°F-2.5°C 77% Calm Calm -- 30.56 in1034.9 mb 0.00 in0.0 mm 0.00 in0.0 mm 0.00 in0.0 mm
11:05 PM 33.6°F0.9°C 27.3°F-2.6°C 77% Calm Calm -- 30.56 in1034.9 mb 0.00 in0.0 mm 0.00 in0.0 mm 0.00 in0.0 mm
11:10 PM 33.3°F0.7°C 27.1°F-2.7°C 78% Calm Calm -- 30.56 in1034.9 mb 0.00 in0.0 mm 0.00 in0.0 mm 0.00 in0.0 mm
11:15 PM 32.9°F0.5°C 26.8°F-2.9°C 78% Calm Calm -- 30.56 in1034.9 mb 0.00 in0.0 mm 0.00 in0.0 mm 0.00 in0.0 mm
11:20 PM 32.5°F0.3°C 26.8°F-2.9°C 79% Calm Calm -- 30.56 in1034.9 mb 0.00 in0.0 mm 0.00 in0.0 mm 0.00 in0.0 mm
11:25 PM 32.7°F0.4°C 27.1°F-2.7°C 80% Calm Calm -- 30.56 in1034.9 mb 0.00 in0.0 mm 0.00 in0.0 mm 0.00 in0.0 mm
11:30 PM 33.3°F0.7°C 27.9°F-2.3°C 80% Calm Calm -- 30.56 in1034.9 mb 0.00 in0.0 mm 0.00 in0.0 mm 0.00 in0.0 mm
11:35 PM 33.6°F0.9°C 28.0°F-2.2°C 80% Calm Calm -- 30.56 in1034.9 mb 0.00 in0.0 mm 0.00 in0.0 mm 0.00 in0.0 mm
11:40 PM 33.3°F0.7°C 27.1°F-2.7°C 78% Calm Calm -- 30.56 in1034.9 mb 0.00 in0.0 mm 0.00 in0.0 mm 0.00 in0.0 mm
11:45 PM 32.5°F0.3°C 26.8°F-2.9°C 79% Calm Calm -- 30.57 in1035.2 mb 0.00 in0.0 mm 0.00 in0.0 mm 0.00 in0.0 mm
11:50 PM 32.4°F0.2°C 26.8°F-2.9°C 80% Calm Calm -- 30.57 in1035.2 mb 0.00 in0.0 mm 0.00 in0.0 mm 0.00 in0.0 mm
11:55 PM 32.7°F0.4°C 27.5°F-2.5°C 81% Calm Calm -- 30.57 in1035.2 mb 0.00 in0.0 mm 0.00 in0.0 mm 0.00 in0.0 mm